sensor_id;sensor_type;location;lat;lon;timestamp;P1;durP1;ratioP1;P2;durP2;ratioP2
20166;SDS011;10243;49.118;8.508;2023-04-03T02:30:32;4.93;;;3.70;;
20166;SDS011;10243;49.118;8.508;2023-04-03T02:30:52;4.53;;;3.80;;
20166;SDS011;10243;49.118;8.508;2023-04-03T02:31:13;5.65;;;4.07;;
20166;SDS011;10243;49.118;8.508;2023-04-03T02:31:36;6.45;;;3.88;;
20166;SDS011;10243;49.118;8.508;2023-04-03T02:31:57;5.85;;;3.75;;
20166;SDS011;10243;49.118;8.508;2023-04-03T02:32:18;6.65;;;4.00;;
20166;SDS011;10243;49.118;8.508;2023-04-03T02:32:39;5.97;;;3.87;;
20166;SDS011;10243;49.118;8.508;2023-04-03T02:33:00;5.63;;;3.80;;
20166;SDS011;10243;49.118;8.508;2023-04-03T02:33:21;5.22;;;4.35;;
20166;SDS011;10243;49.118;8.508;2023-04-03T02:33:41;6.77;;;4.20;;
20166;SDS011;10243;49.118;8.508;2023-04-03T02:34:04;4.40;;;3.88;;
20166;SDS011;10243;49.118;8.508;2023-04-03T02:34:25;4.20;;;3.80;;
20166;SDS011;10243;49.118;8.508;2023-04-03T02:34:46;6.00;;;3.85;;
20166;SDS011;10243;49.118;8.508;2023-04-03T02:35:08;4.65;;;3.90;;
20166;SDS011;10243;49.118;8.508;2023-04-03T02:35:29;4.27;;;3.80;;
20166;SDS011;10243;49.118;8.508;2023-04-03T02:35:52;5.78;;;4.03;;
20166;SDS011;10243;49.118;8.508;2023-04-03T02:36:14;6.95;;;3.80;;
20166;SDS011;10243;49.118;8.508;2023-04-03T02:36:38;5.28;;;3.88;;
20166;SDS011;10243;49.118;8.508;2023-04-03T02:37:02;4.72;;;3.65;;
20166;SDS011;10243;49.118;8.508;2023-04-03T02:37:23;4.63;;;3.70;;
20166;SDS011;10243;49.118;8.508;2023-04-03T02:37:44;5.15;;;3.78;;
20166;SDS011;10243;49.118;8.508;2023-04-03T02:38:05;5.95;;;3.88;;
20166;SDS011;10243;49.118;8.508;2023-04-03T02:38:25;5.10;;;3.90;;
20166;SDS011;10243;49.118;8.508;2023-04-03T02:38:47;4.85;;;3.72;;
20166;SDS011;10243;49.118;8.508;2023-04-03T02:39:08;5.15;;;3.80;;
20166;SDS011;10243;49.118;8.508;2023-04-03T02:39:29;7.70;;;3.80;;
20166;SDS011;10243;49.118;8.508;2023-04-03T02:39:52;5.50;;;3.75;;
20166;SDS011;10243;49.118;8.508;2023-04-03T02:40:13;5.82;;;4.00;;
20166;SDS011;10243;49.118;8.508;2023-04-03T02:40:33;5.17;;;4.10;;
20166;SDS011;10243;49.118;8.508;2023-04-03T02:40:59;6.30;;;4.05;;
20166;SDS011;10243;49.118;8.508;2023-04-03T02:41:19;6.13;;;3.95;;
20166;SDS011;10243;49.118;8.508;2023-04-03T02:41:41;6.60;;;3.85;;
20166;SDS011;10243;49.118;8.508;2023-04-03T02:42:08;5.32;;;3.70;;
20166;SDS011;10243;49.118;8.508;2023-04-03T02:42:29;7.05;;;3.92;;
20166;SDS011;10243;49.118;8.508;2023-04-03T02:42:50;6.70;;;3.80;;
20166;SDS011;10243;49.118;8.508;2023-04-03T02:43:10;3.97;;;3.40;;
20166;SDS011;10243;49.118;8.508;2023-04-03T02:43:31;6.28;;;3.45;;
20166;SDS011;10243;49.118;8.508;2023-04-03T02:43:53;5.47;;;3.67;;
20166;SDS011;10243;49.118;8.508;2023-04-03T02:44:13;5.20;;;4.00;;
20166;SDS011;10243;49.118;8.508;2023-04-03T02:44:33;4.37;;;3.70;;
20166;SDS011;10243;49.118;8.508;2023-04-03T02:44:54;5.03;;;3.72;;
20166;SDS011;10243;49.118;8.508;2023-04-03T02:45:15;4.88;;;3.90;;
20166;SDS011;10243;49.118;8.508;2023-04-03T02:45:38;4.93;;;3.97;;
20166;SDS011;10243;49.118;8.508;2023-04-03T02:45:59;4.65;;;3.95;;
20166;SDS011;10243;49.118;8.508;2023-04-03T02:46:19;4.60;;;4.00;;
20166;SDS011;10243;49.118;8.508;2023-04-03T02:46:40;4.65;;;3.58;;
20166;SDS011;10243;49.118;8.508;2023-04-03T02:47:01;5.50;;;3.67;;
20166;SDS011;10243;49.118;8.508;2023-04-03T02:47:24;4.20;;;3.80;;
20166;SDS011;10243;49.118;8.508;2023-04-03T02:47:44;4.15;;;3.75;;
20166;SDS011;10243;49.118;8.508;2023-04-03T02:48:06;5.13;;;3.83;;
20166;SDS011;10243;49.118;8.508;2023-04-03T02:48:26;7.13;;;3.90;;
20166;SDS011;10243;49.118;8.508;2023-04-03T02:48:48;7.28;;;3.90;;
20166;SDS011;10243;49.118;8.508;2023-04-03T02:49:08;4.77;;;3.80;;
20166;SDS011;10243;49.118;8.508;2023-04-03T02:49:29;3.97;;;3.58;;
20166;SDS011;10243;49.118;8.508;2023-04-03T02:49:50;4.20;;;3.80;;
20166;SDS011;10243;49.118;8.508;2023-04-03T02:50:12;4.50;;;4.00;;
20166;SDS011;10243;49.118;8.508;2023-04-03T02:50:33;4.13;;;3.67;;
20166;SDS011;10243;49.118;8.508;2023-04-03T02:50:53;4.63;;;3.83;;
20166;SDS011;10243;49.118;8.508;2023-04-03T02:51:15;4.03;;;3.63;;
20166;SDS011;10243;49.118;8.508;2023-04-03T02:51:35;4.90;;;3.80;;
20166;SDS011;10243;49.118;8.508;2023-04-03T02:51:56;5.05;;;3.78;;
20166;SDS011;10243;49.118;8.508;2023-04-03T02:52:16;4.20;;;3.60;;
20166;SDS011;10243;49.118;8.508;2023-04-03T02:52:37;4.18;;;3.63;;
20166;SDS011;10243;49.118;8.508;2023-04-03T02:52:58;5.57;;;3.90;;
20166;SDS011;10243;49.118;8.508;2023-04-03T02:53:18;5.40;;;4.00;;
20166;SDS011;10243;49.118;8.508;2023-04-03T02:53:39;4.03;;;3.53;;
20166;SDS011;10243;49.118;8.508;2023-04-03T02:54:05;4.93;;;3.70;;
20166;SDS011;10243;49.118;8.508;2023-04-03T02:54:29;5.07;;;4.00;;
20166;SDS011;10243;49.118;8.508;2023-04-03T02:54:53;5.53;;;4.22;;
20166;SDS011;10243;49.118;8.508;2023-04-03T02:55:14;5.80;;;4.07;;
20166;SDS011;10243;49.118;8.508;2023-04-03T02:55:35;6.35;;;3.85;;
20166;SDS011;10243;49.118;8.508;2023-04-03T02:55:56;5.00;;;3.70;;
20166;SDS011;10243;49.118;8.508;2023-04-03T02:56:18;4.03;;;3.53;;
20166;SDS011;10243;49.118;8.508;2023-04-03T02:56:40;4.05;;;3.70;;
20166;SDS011;10243;49.118;8.508;2023-04-03T02:57:00;4.13;;;3.73;;
20166;SDS011;10243;49.118;8.508;2023-04-03T02:57:22;4.60;;;3.63;;
20166;SDS011;10243;49.118;8.508;2023-04-03T02:57:42;4.87;;;3.63;;
20166;SDS011;10243;49.118;8.508;2023-04-03T02:58:03;5.20;;;3.92;;
20166;SDS011;10243;49.118;8.508;2023-04-03T02:58:23;5.05;;;3.65;;
20166;SDS011;10243;49.118;8.508;2023-04-03T02:58:47;5.63;;;3.90;;
20166;SDS011;10243;49.118;8.508;2023-04-03T02:59:09;6.15;;;3.72;;
20166;SDS011;10243;49.118;8.508;2023-04-03T02:59:31;5.78;;;3.95;;
20166;SDS011;10243;49.118;8.508;2023-04-03T02:59:52;5.77;;;3.70;;
20166;SDS011;10243;49.118;8.508;2023-04-03T03:00:13;5.95;;;3.70;;
20166;SDS011;10243;49.118;8.508;2023-04-03T03:00:34;5.50;;;4.00;;
20166;SDS011;10243;49.118;8.508;2023-04-03T03:00:56;6.28;;;3.65;;
20166;SDS011;10243;49.118;8.508;2023-04-03T03:01:17;6.65;;;4.03;;
20166;SDS011;10243;49.118;8.508;2023-04-03T03:01:38;5.25;;;4.03;;
20166;SDS011;10243;49.118;8.508;2023-04-03T03:01:59;8.17;;;4.20;;
20166;SDS011;10243;49.118;8.508;2023-04-03T03:02:19;6.30;;;3.80;;
20166;SDS011;10243;49.118;8.508;2023-04-03T03:02:40;5.17;;;3.90;;
20166;SDS011;10243;49.118;8.508;2023-04-03T03:03:00;4.03;;;3.63;;
20166;SDS011;10243;49.118;8.508;2023-04-03T03:03:22;4.10;;;3.70;;
20166;SDS011;10243;49.118;8.508;2023-04-03T03:03:43;4.03;;;3.60;;
20166;SDS011;10243;49.118;8.508;2023-04-03T03:04:03;3.83;;;3.47;;
20166;SDS011;10243;49.118;8.508;2023-04-03T03:04:23;4.20;;;3.80;;
20166;SDS011;10243;49.118;8.508;2023-04-03T03:04:45;3.97;;;3.47;;
20166;SDS011;10243;49.118;8.508;2023-04-03T03:05:06;4.10;;;3.67;;
20166;SDS011;10243;49.118;8.508;2023-04-03T03:05:27;4.72;;;3.70;;
20166;SDS011;10243;49.118;8.508;2023-04-03T03:05:47;4.32;;;3.92;;
20166;SDS011;10243;49.118;8.508;2023-04-03T03:06:08;4.67;;;3.90;;
20166;SDS011;10243;49.118;8.508;2023-04-03T03:06:29;4.88;;;3.88;;
20166;SDS011;10243;49.118;8.508;2023-04-03T03:06:50;4.65;;;3.80;;
20166;SDS011;10243;49.118;8.508;2023-04-03T03:07:12;4.97;;;3.67;;
20166;SDS011;10243;49.118;8.508;2023-04-03T03:07:32;4.50;;;3.80;;
20166;SDS011;10243;49.118;8.508;2023-04-03T03:07:55;5.20;;;3.85;;
20166;SDS011;10243;49.118;8.508;2023-04-03T03:08:16;4.10;;;3.65;;
20166;SDS011;10243;49.118;8.508;2023-04-03T03:08:40;5.70;;;3.53;;
20166;SDS011;10243;49.118;8.508;2023-04-03T03:09:01;4.65;;;3.63;;
20166;SDS011;10243;49.118;8.508;2023-04-03T03:09:21;4.15;;;3.75;;
20166;SDS011;10243;49.118;8.508;2023-04-03T03:09:42;4.67;;;3.87;;
20166;SDS011;10243;49.118;8.508;2023-04-03T03:10:03;5.07;;;3.85;;
20166;SDS011;10243;49.118;8.508;2023-04-03T03:10:24;6.07;;;3.80;;
20166;SDS011;10243;49.118;8.508;2023-04-03T03:10:44;7.67;;;3.90;;
20166;SDS011;10243;49.118;8.508;2023-04-03T03:11:05;4.97;;;3.90;;
20166;SDS011;10243;49.118;8.508;2023-04-03T03:11:27;4.05;;;3.47;;
20166;SDS011;10243;49.118;8.508;2023-04-03T03:11:47;5.33;;;3.70;;
20166;SDS011;10243;49.118;8.508;2023-04-03T03:12:08;4.32;;;3.92;;
20166;SDS011;10243;49.118;8.508;2023-04-03T03:12:29;4.70;;;4.10;;
20166;SDS011;10243;49.118;8.508;2023-04-03T03:12:49;4.97;;;3.85;;
20166;SDS011;10243;49.118;8.508;2023-04-03T03:13:10;5.57;;;4.10;;
20166;SDS011;10243;49.118;8.508;2023-04-03T03:13:32;7.18;;;4.00;;
20166;SDS011;10243;49.118;8.508;2023-04-03T03:13:52;6.30;;;4.00;;
20166;SDS011;10243;49.118;8.508;2023-04-03T03:14:13;5.10;;;3.90;;
20166;SDS011;10243;49.118;8.508;2023-04-03T03:14:33;5.85;;;4.00;;
20166;SDS011;10243;49.118;8.508;2023-04-03T03:14:55;5.95;;;3.80;;
20166;SDS011;10243;49.118;8.508;2023-04-03T03:15:15;4.13;;;3.70;;
20166;SDS011;10243;49.118;8.508;2023-04-03T03:15:37;4.00;;;3.60;;
20166;SDS011;10243;49.118;8.508;2023-04-03T03:15:59;4.22;;;3.83;;
20166;SDS011;10243;49.118;8.508;2023-04-03T03:16:20;4.53;;;3.72;;
20166;SDS011;10243;49.118;8.508;2023-04-03T03:16:41;5.88;;;3.90;;
20166;SDS011;10243;49.118;8.508;2023-04-03T03:17:02;6.07;;;3.70;;
20166;SDS011;10243;49.118;8.508;2023-04-03T03:17:22;4.20;;;3.80;;
20166;SDS011;10243;49.118;8.508;2023-04-03T03:17:43;4.50;;;3.47;;
20166;SDS011;10243;49.118;8.508;2023-04-03T03:18:04;6.68;;;4.00;;
20166;SDS011;10243;49.118;8.508;2023-04-03T03:18:25;6.40;;;3.80;;
20166;SDS011;10243;49.118;8.508;2023-04-03T03:18:46;5.63;;;3.80;;
20166;SDS011;10243;49.118;8.508;2023-04-03T03:19:07;5.07;;;3.83;;
20166;SDS011;10243;49.118;8.508;2023-04-03T03:19:27;4.30;;;3.90;;
20166;SDS011;10243;49.118;8.508;2023-04-03T03:19:49;4.10;;;3.80;;
20166;SDS011;10243;49.118;8.508;2023-04-03T03:20:10;4.47;;;3.77;;
20166;SDS011;10243;49.118;8.508;2023-04-03T03:20:31;5.75;;;4.00;;
20166;SDS011;10243;49.118;8.508;2023-04-03T03:20:52;4.75;;;3.80;;
20166;SDS011;10243;49.118;8.508;2023-04-03T03:21:14;5.22;;;3.95;;
20166;SDS011;10243;49.118;8.508;2023-04-03T03:21:34;6.03;;;3.83;;
20166;SDS011;10243;49.118;8.508;2023-04-03T03:21:55;6.53;;;3.85;;
20166;SDS011;10243;49.118;8.508;2023-04-03T03:22:17;4.28;;;3.67;;
20166;SDS011;10243;49.118;8.508;2023-04-03T03:22:38;4.20;;;3.80;;
20166;SDS011;10243;49.118;8.508;2023-04-03T03:22:58;4.55;;;3.78;;
20166;SDS011;10243;49.118;8.508;2023-04-03T03:23:19;4.43;;;3.70;;
20166;SDS011;10243;49.118;8.508;2023-04-03T03:23:40;5.47;;;3.92;;
20166;SDS011;10243;49.118;8.508;2023-04-03T03:24:01;6.00;;;3.78;;
20166;SDS011;10243;49.118;8.508;2023-04-03T03:24:21;5.60;;;3.93;;
20166;SDS011;10243;49.118;8.508;2023-04-03T03:24:42;6.20;;;3.97;;
20166;SDS011;10243;49.118;8.508;2023-04-03T03:25:03;4.68;;;3.70;;
20166;SDS011;10243;49.118;8.508;2023-04-03T03:25:24;4.95;;;4.00;;
20166;SDS011;10243;49.118;8.508;2023-04-03T03:25:45;5.50;;;4.03;;
20166;SDS011;10243;49.118;8.508;2023-04-03T03:26:06;4.72;;;3.95;;
20166;SDS011;10243;49.118;8.508;2023-04-03T03:26:28;4.70;;;4.15;;
20166;SDS011;10243;49.118;8.508;2023-04-03T03:26:50;4.35;;;3.85;;
20166;SDS011;10243;49.118;8.508;2023-04-03T03:27:10;4.65;;;3.90;;
20166;SDS011;10243;49.118;8.508;2023-04-03T03:27:32;4.30;;;3.90;;
20166;SDS011;10243;49.118;8.508;2023-04-03T03:27:52;4.78;;;4.15;;
20166;SDS011;10243;49.118;8.508;2023-04-03T03:28:13;7.27;;;4.13;;
20166;SDS011;10243;49.118;8.508;2023-04-03T03:28:35;5.88;;;3.80;;
20166;SDS011;10243;49.118;8.508;2023-04-03T03:28:56;4.60;;;4.10;;
20166;SDS011;10243;49.118;8.508;2023-04-03T03:29:17;4.90;;;4.20;;
20166;SDS011;10243;49.118;8.508;2023-04-03T03:29:38;8.23;;;4.05;;
20166;SDS011;10243;49.118;8.508;2023-04-03T03:29:59;7.22;;;4.10;;
20166;SDS011;10243;49.118;8.508;2023-04-03T03:30:20;6.10;;;4.10;;
20166;SDS011;10243;49.118;8.508;2023-04-03T03:30:41;4.82;;;4.10;;
20166;SDS011;10243;49.118;8.508;2023-04-03T03:31:03;5.80;;;4.05;;
20166;SDS011;10243;49.118;8.508;2023-04-03T03:31:25;6.72;;;4.53;;
20166;SDS011;10243;49.118;8.508;2023-04-03T03:31:46;6.07;;;4.55;;
20166;SDS011;10243;49.118;8.508;2023-04-03T03:32:06;4.43;;;4.00;;
20166;SDS011;10243;49.118;8.508;2023-04-03T03:32:30;5.00;;;4.00;;
20166;SDS011;10243;49.118;8.508;2023-04-03T03:32:50;4.47;;;3.80;;
20166;SDS011;10243;49.118;8.508;2023-04-03T03:33:11;4.55;;;4.15;;
20166;SDS011;10243;49.118;8.508;2023-04-03T03:33:32;4.37;;;3.97;;
20166;SDS011;10243;49.118;8.508;2023-04-03T03:33:53;5.45;;;4.22;;
20166;SDS011;10243;49.118;8.508;2023-04-03T03:34:13;5.00;;;4.50;;
20166;SDS011;10243;49.118;8.508;2023-04-03T03:34:35;5.55;;;4.82;;
20166;SDS011;10243;49.118;8.508;2023-04-03T03:34:55;6.07;;;4.85;;
20166;SDS011;10243;49.118;8.508;2023-04-03T03:35:16;4.93;;;4.43;;
20166;SDS011;10243;49.118;8.508;2023-04-03T03:35:36;5.85;;;4.68;;
20166;SDS011;10243;49.118;8.508;2023-04-03T03:35:57;5.90;;;4.80;;
20166;SDS011;10243;49.118;8.508;2023-04-03T03:36:18;6.33;;;5.20;;
20166;SDS011;10243;49.118;8.508;2023-04-03T03:36:39;6.13;;;5.10;;
20166;SDS011;10243;49.118;8.508;2023-04-03T03:37:00;6.47;;;5.03;;
20166;SDS011;10243;49.118;8.508;2023-04-03T03:37:20;6.80;;;4.80;;
20166;SDS011;10243;49.118;8.508;2023-04-03T03:37:40;5.77;;;4.80;;
20166;SDS011;10243;49.118;8.508;2023-04-03T03:38:01;5.15;;;4.65;;
20166;SDS011;10243;49.118;8.508;2023-04-03T03:38:22;5.10;;;4.47;;
20166;SDS011;10243;49.118;8.508;2023-04-03T03:38:43;6.50;;;4.80;;
20166;SDS011;10243;49.118;8.508;2023-04-03T03:39:04;5.23;;;4.57;;
20166;SDS011;10243;49.118;8.508;2023-04-03T03:39:25;6.75;;;4.75;;
20166;SDS011;10243;49.118;8.508;2023-04-03T03:39:46;5.57;;;4.60;;
20166;SDS011;10243;49.118;8.508;2023-04-03T03:40:07;5.55;;;4.40;;
20166;SDS011;10243;49.118;8.508;2023-04-03T03:40:28;4.75;;;4.32;;
20166;SDS011;10243;49.118;8.508;2023-04-03T03:40:49;5.10;;;4.60;;
20166;SDS011;10243;49.118;8.508;2023-04-03T03:41:12;7.65;;;4.38;;
20166;SDS011;10243;49.118;8.508;2023-04-03T03:41:34;4.68;;;4.28;;
20166;SDS011;10243;49.118;8.508;2023-04-03T03:41:55;6.65;;;4.90;;
20166;SDS011;10243;49.118;8.508;2023-04-03T03:42:16;5.77;;;4.50;;
20166;SDS011;10243;49.118;8.508;2023-04-03T03:42:37;6.63;;;4.78;;
20166;SDS011;10243;49.118;8.508;2023-04-03T03:42:58;6.70;;;4.60;;
20166;SDS011;10243;49.118;8.508;2023-04-03T03:43:18;8.27;;;4.40;;
20166;SDS011;10243;49.118;8.508;2023-04-03T03:43:41;7.20;;;4.65;;
20166;SDS011;10243;49.118;8.508;2023-04-03T03:44:02;5.30;;;4.80;;
20166;SDS011;10243;49.118;8.508;2023-04-03T03:44:25;7.85;;;5.28;;
20166;SDS011;10243;49.118;8.508;2023-04-03T03:44:47;6.03;;;5.38;;
20166;SDS011;10243;49.118;8.508;2023-04-03T03:45:07;7.13;;;5.28;;
20166;SDS011;10243;49.118;8.508;2023-04-03T03:45:29;6.57;;;5.30;;
20166;SDS011;10243;49.118;8.508;2023-04-03T03:45:51;7.28;;;5.18;;
20166;SDS011;10243;49.118;8.508;2023-04-03T03:46:13;7.25;;;5.25;;
20166;SDS011;10243;49.118;8.508;2023-04-03T03:46:33;6.25;;;5.38;;
20166;SDS011;10243;49.118;8.508;2023-04-03T03:46:55;6.35;;;5.32;;
20166;SDS011;10243;49.118;8.508;2023-04-03T03:47:16;8.50;;;5.55;;
20166;SDS011;10243;49.118;8.508;2023-04-03T03:47:36;6.93;;;5.20;;
20166;SDS011;10243;49.118;8.508;2023-04-03T03:47:57;6.83;;;5.70;;
20166;SDS011;10243;49.118;8.508;2023-04-03T03:48:18;7.78;;;5.80;;
20166;SDS011;10243;49.118;8.508;2023-04-03T03:48:39;8.48;;;5.93;;
20166;SDS011;10243;49.118;8.508;2023-04-03T03:49:00;8.07;;;5.67;;
20166;SDS011;10243;49.118;8.508;2023-04-03T03:49:21;8.77;;;6.00;;
20166;SDS011;10243;49.118;8.508;2023-04-03T03:49:45;8.25;;;5.65;;
20166;SDS011;10243;49.118;8.508;2023-04-03T03:50:06;8.13;;;5.57;;
20166;SDS011;10243;49.118;8.508;2023-04-03T03:50:27;6.93;;;4.95;;
20166;SDS011;10243;49.118;8.508;2023-04-03T03:50:48;7.23;;;4.90;;
20166;SDS011;10243;49.118;8.508;2023-04-03T03:51:08;5.50;;;4.80;;
20166;SDS011;10243;49.118;8.508;2023-04-03T03:51:30;5.70;;;5.10;;
20166;SDS011;10243;49.118;8.508;2023-04-03T03:51:52;5.30;;;4.80;;
20166;SDS011;10243;49.118;8.508;2023-04-03T03:52:12;6.77;;;4.83;;
20166;SDS011;10243;49.118;8.508;2023-04-03T03:52:33;6.88;;;4.65;;
20166;SDS011;10243;49.118;8.508;2023-04-03T03:52:53;6.90;;;4.87;;
20166;SDS011;10243;49.118;8.508;2023-04-03T03:53:16;5.75;;;4.82;;
20166;SDS011;10243;49.118;8.508;2023-04-03T03:53:39;7.72;;;5.00;;
20166;SDS011;10243;49.118;8.508;2023-04-03T03:54:03;6.85;;;4.63;;
20166;SDS011;10243;49.118;8.508;2023-04-03T03:54:25;6.33;;;4.50;;
20166;SDS011;10243;49.118;8.508;2023-04-03T03:54:47;8.43;;;4.50;;
20166;SDS011;10243;49.118;8.508;2023-04-03T03:55:09;6.32;;;4.50;;
20166;SDS011;10243;49.118;8.508;2023-04-03T03:55:30;4.78;;;4.10;;
20166;SDS011;10243;49.118;8.508;2023-04-03T03:55:52;4.97;;;4.30;;
20166;SDS011;10243;49.118;8.508;2023-04-03T03:56:14;4.78;;;4.28;;
20166;SDS011;10243;49.118;8.508;2023-04-03T03:56:36;5.72;;;4.30;;
20166;SDS011;10243;49.118;8.508;2023-04-03T03:56:57;6.20;;;4.20;;
20166;SDS011;10243;49.118;8.508;2023-04-03T03:57:18;4.50;;;4.10;;
20166;SDS011;10243;49.118;8.508;2023-04-03T03:57:41;4.65;;;4.20;;
20166;SDS011;10243;49.118;8.508;2023-04-03T03:58:02;4.70;;;4.30;;
20166;SDS011;10243;49.118;8.508;2023-04-03T03:58:27;6.35;;;4.18;;
20166;SDS011;10243;49.118;8.508;2023-04-03T03:58:48;6.57;;;4.40;;
20166;SDS011;10243;49.118;8.508;2023-04-03T03:59:10;4.55;;;4.15;;
20166;SDS011;10243;49.118;8.508;2023-04-03T03:59:32;5.53;;;4.15;;
20166;SDS011;10243;49.118;8.508;2023-04-03T03:59:53;6.35;;;4.20;;
20166;SDS011;10243;49.118;8.508;2023-04-03T04:00:14;7.50;;;4.13;;
20166;SDS011;10243;49.118;8.508;2023-04-03T04:00:41;7.07;;;4.15;;
20166;SDS011;10243;49.118;8.508;2023-04-03T04:01:03;5.20;;;4.40;;
20166;SDS011;10243;49.118;8.508;2023-04-03T04:01:32;6.28;;;3.95;;
20166;SDS011;10243;49.118;8.508;2023-04-03T04:01:52;6.80;;;3.85;;
20166;SDS011;10243;49.118;8.508;2023-04-03T04:02:14;5.68;;;4.10;;
20166;SDS011;10243;49.118;8.508;2023-04-03T04:02:35;4.53;;;4.07;;
20166;SDS011;10243;49.118;8.508;2023-04-03T04:02:56;5.40;;;3.78;;
20166;SDS011;10243;49.118;8.508;2023-04-03T04:03:17;4.47;;;3.97;;
20166;SDS011;10243;49.118;8.508;2023-04-03T04:03:41;5.95;;;3.92;;
20166;SDS011;10243;49.118;8.508;2023-04-03T04:04:03;6.53;;;3.90;;
20166;SDS011;10243;49.118;8.508;2023-04-03T04:04:25;5.60;;;4.00;;
20166;SDS011;10243;49.118;8.508;2023-04-03T04:04:48;5.30;;;4.07;;
20166;SDS011;10243;49.118;8.508;2023-04-03T04:05:11;4.78;;;4.00;;
20166;SDS011;10243;49.118;8.508;2023-04-03T04:05:35;4.45;;;3.95;;
20166;SDS011;10243;49.118;8.508;2023-04-03T04:05:55;5.18;;;3.92;;
20166;SDS011;10243;49.118;8.508;2023-04-03T04:06:16;4.22;;;3.75;;
20166;SDS011;10243;49.118;8.508;2023-04-03T04:06:37;4.53;;;3.72;;
20166;SDS011;10243;49.118;8.508;2023-04-03T04:07:01;4.72;;;3.85;;
20166;SDS011;10243;49.118;8.508;2023-04-03T04:07:21;4.83;;;3.90;;
20166;SDS011;10243;49.118;8.508;2023-04-03T04:07:42;5.55;;;4.00;;
20166;SDS011;10243;49.118;8.508;2023-04-03T04:08:02;5.47;;;3.80;;
20166;SDS011;10243;49.118;8.508;2023-04-03T04:08:28;4.13;;;3.80;;
20166;SDS011;10243;49.118;8.508;2023-04-03T04:08:48;4.78;;;4.38;;
20166;SDS011;10243;49.118;8.508;2023-04-03T04:09:09;4.28;;;3.88;;
20166;SDS011;10243;49.118;8.508;2023-04-03T04:09:30;6.82;;;4.00;;
20166;SDS011;10243;49.118;8.508;2023-04-03T04:09:53;5.82;;;3.90;;
20166;SDS011;10243;49.118;8.508;2023-04-03T04:10:13;5.38;;;4.00;;
20166;SDS011;10243;49.118;8.508;2023-04-03T04:10:55;6.40;;;4.00;;
20166;SDS011;10243;49.118;8.508;2023-04-03T04:11:19;5.28;;;4.18;;
20166;SDS011;10243;49.118;8.508;2023-04-03T04:11:41;5.75;;;4.05;;
20166;SDS011;10243;49.118;8.508;2023-04-03T04:12:04;7.40;;;4.30;;
20166;SDS011;10243;49.118;8.508;2023-04-03T04:12:26;7.45;;;4.07;;
20166;SDS011;10243;49.118;8.508;2023-04-03T04:12:46;6.33;;;3.93;;
20166;SDS011;10243;49.118;8.508;2023-04-03T04:13:09;5.53;;;4.10;;
20166;SDS011;10243;49.118;8.508;2023-04-03T04:13:29;4.50;;;4.10;;
20166;SDS011;10243;49.118;8.508;2023-04-03T04:13:50;5.43;;;4.10;;
20166;SDS011;10243;49.118;8.508;2023-04-03T04:14:12;4.95;;;3.88;;
20166;SDS011;10243;49.118;8.508;2023-04-03T04:14:35;4.57;;;3.90;;
20166;SDS011;10243;49.118;8.508;2023-04-03T04:14:56;4.50;;;3.92;;
20166;SDS011;10243;49.118;8.508;2023-04-03T04:15:16;5.87;;;3.97;;
20166;SDS011;10243;49.118;8.508;2023-04-03T04:15:37;4.60;;;3.90;;
20166;SDS011;10243;49.118;8.508;2023-04-03T04:15:58;5.57;;;4.10;;
20166;SDS011;10243;49.118;8.508;2023-04-03T04:16:19;4.25;;;3.85;;
20166;SDS011;10243;49.118;8.508;2023-04-03T04:16:41;4.93;;;4.10;;
20166;SDS011;10243;49.118;8.508;2023-04-03T04:17:07;5.20;;;4.10;;
20166;SDS011;10243;49.118;8.508;2023-04-03T04:17:29;6.53;;;3.88;;
20166;SDS011;10243;49.118;8.508;2023-04-03T04:17:50;4.75;;;3.58;;
20166;SDS011;10243;49.118;8.508;2023-04-03T04:18:11;5.23;;;3.87;;
20166;SDS011;10243;49.118;8.508;2023-04-03T04:18:31;5.85;;;3.90;;
20166;SDS011;10243;49.118;8.508;2023-04-03T04:18:52;6.50;;;3.87;;
20166;SDS011;10243;49.118;8.508;2023-04-03T04:19:14;5.35;;;3.88;;
20166;SDS011;10243;49.118;8.508;2023-04-03T04:19:34;5.85;;;3.70;;
20166;SDS011;10243;49.118;8.508;2023-04-03T04:19:55;7.80;;;3.73;;
20166;SDS011;10243;49.118;8.508;2023-04-03T04:20:16;4.40;;;3.78;;
20166;SDS011;10243;49.118;8.508;2023-04-03T04:20:36;4.88;;;4.00;;
20166;SDS011;10243;49.118;8.508;2023-04-03T04:20:58;5.75;;;4.20;;
20166;SDS011;10243;49.118;8.508;2023-04-03T04:21:19;6.63;;;4.05;;
20166;SDS011;10243;49.118;8.508;2023-04-03T04:21:40;6.03;;;4.07;;
20166;SDS011;10243;49.118;8.508;2023-04-03T04:22:05;4.50;;;4.10;;
20166;SDS011;10243;49.118;8.508;2023-04-03T04:22:26;6.30;;;4.13;;
20166;SDS011;10243;49.118;8.508;2023-04-03T04:22:47;6.03;;;4.00;;
20166;SDS011;10243;49.118;8.508;2023-04-03T04:23:08;6.47;;;4.18;;
20166;SDS011;10243;49.118;8.508;2023-04-03T04:23:30;4.95;;;4.07;;
20166;SDS011;10243;49.118;8.508;2023-04-03T04:23:52;5.43;;;4.15;;
20166;SDS011;10243;49.118;8.508;2023-04-03T04:24:13;6.47;;;4.53;;
20166;SDS011;10243;49.118;8.508;2023-04-03T04:24:34;7.20;;;4.25;;
20166;SDS011;10243;49.118;8.508;2023-04-03T04:24:56;5.53;;;3.90;;
20166;SDS011;10243;49.118;8.508;2023-04-03T04:25:17;4.55;;;3.95;;
20166;SDS011;10243;49.118;8.508;2023-04-03T04:25:37;5.37;;;4.47;;
20166;SDS011;10243;49.118;8.508;2023-04-03T04:25:59;5.15;;;4.40;;
20166;SDS011;10243;49.118;8.508;2023-04-03T04:26:22;5.53;;;4.35;;
20166;SDS011;10243;49.118;8.508;2023-04-03T04:26:43;6.10;;;4.17;;
20166;SDS011;10243;49.118;8.508;2023-04-03T04:27:06;6.45;;;4.13;;
20166;SDS011;10243;49.118;8.508;2023-04-03T04:27:27;6.65;;;4.38;;
20166;SDS011;10243;49.118;8.508;2023-04-03T04:27:48;5.00;;;4.40;;
20166;SDS011;10243;49.118;8.508;2023-04-03T04:28:09;5.97;;;4.45;;
20166;SDS011;10243;49.118;8.508;2023-04-03T04:28:30;6.38;;;4.15;;
20166;SDS011;10243;49.118;8.508;2023-04-03T04:28:52;5.38;;;4.18;;
20166;SDS011;10243;49.118;8.508;2023-04-03T04:29:13;4.72;;;4.32;;
20166;SDS011;10243;49.118;8.508;2023-04-03T04:29:35;5.40;;;4.43;;
20166;SDS011;10243;49.118;8.508;2023-04-03T04:29:58;8.20;;;4.40;;
20166;SDS011;10243;49.118;8.508;2023-04-03T04:30:19;7.20;;;4.43;;
20166;SDS011;10243;49.118;8.508;2023-04-03T04:30:42;4.95;;;4.45;;
20166;SDS011;10243;49.118;8.508;2023-04-03T04:31:03;4.90;;;4.30;;
20166;SDS011;10243;49.118;8.508;2023-04-03T04:31:24;5.90;;;4.32;;
20166;SDS011;10243;49.118;8.508;2023-04-03T04:31:47;4.80;;;4.40;;
20166;SDS011;10243;49.118;8.508;2023-04-03T04:32:07;4.93;;;4.40;;
20166;SDS011;10243;49.118;8.508;2023-04-03T04:32:28;4.53;;;4.13;;
20166;SDS011;10243;49.118;8.508;2023-04-03T04:32:49;4.93;;;4.37;;
20166;SDS011;10243;49.118;8.508;2023-04-03T04:33:11;6.40;;;4.43;;
20166;SDS011;10243;49.118;8.508;2023-04-03T04:33:32;6.68;;;4.65;;
20166;SDS011;10243;49.118;8.508;2023-04-03T04:33:55;5.88;;;4.72;;
20166;SDS011;10243;49.118;8.508;2023-04-03T04:34:16;5.40;;;4.90;;
20166;SDS011;10243;49.118;8.508;2023-04-03T04:34:36;5.05;;;4.65;;
20166;SDS011;10243;49.118;8.508;2023-04-03T04:34:58;4.70;;;4.30;;
20166;SDS011;10243;49.118;8.508;2023-04-03T04:35:18;5.65;;;4.25;;
20166;SDS011;10243;49.118;8.508;2023-04-03T05:55:10;11.23;;;4.67;;
20166;SDS011;10243;49.118;8.508;2023-04-03T05:55:31;5.50;;;4.80;;
20166;SDS011;10243;49.118;8.508;2023-04-03T05:55:52;5.10;;;4.60;;
20166;SDS011;10243;49.118;8.508;2023-04-03T05:56:14;9.10;;;4.65;;
20166;SDS011;10243;49.118;8.508;2023-04-03T05:56:34;8.53;;;4.40;;
20166;SDS011;10243;49.118;8.508;2023-04-03T05:56:56;5.13;;;4.30;;
20166;SDS011;10243;49.118;8.508;2023-04-03T05:57:17;7.18;;;4.53;;
20166;SDS011;10243;49.118;8.508;2023-04-03T05:57:38;6.13;;;4.47;;
20166;SDS011;10243;49.118;8.508;2023-04-03T05:57:59;5.72;;;4.32;;
20166;SDS011;10243;49.118;8.508;2023-04-03T05:58:20;5.20;;;4.50;;
20166;SDS011;10243;49.118;8.508;2023-04-03T05:58:42;7.63;;;4.20;;
20166;SDS011;10243;49.118;8.508;2023-04-03T05:59:02;6.03;;;4.53;;